createdAt,value
2022-11-28T00:01:31.596Z,8.93
2022-11-28T00:04:00.427Z,6.27
2022-11-28T00:06:28.446Z,10.00
2022-11-28T00:08:58.525Z,6.03
2022-11-28T00:11:25.574Z,6.87
2022-11-28T00:13:52.686Z,5.70
2022-11-28T00:16:23.082Z,6.70
2022-11-28T00:18:51.889Z,6.90
2022-11-28T00:21:20.588Z,7.33
2022-11-28T00:23:48.799Z,6.53
2022-11-28T00:26:19.544Z,8.33
2022-11-28T00:28:46.962Z,7.63
2022-11-28T00:31:15.876Z,6.07
2022-11-28T00:33:43.765Z,6.97
2022-11-28T00:36:12.112Z,7.00
2022-11-28T00:38:40.535Z,7.27
2022-11-28T00:41:10.202Z,7.07
2022-11-28T00:43:37.943Z,7.47
2022-11-28T00:46:05.452Z,7.10
2022-11-28T00:48:33.611Z,7.70
2022-11-28T00:51:07.144Z,7.57
2022-11-28T00:53:34.187Z,7.07
2022-11-28T00:56:05.055Z,5.90
2022-11-28T00:58:32.658Z,8.07
2022-11-28T01:00:59.813Z,7.43
2022-11-28T01:03:27.208Z,7.20
2022-11-28T01:05:54.160Z,6.50
2022-11-28T01:08:21.114Z,7.33
2022-11-28T01:10:48.032Z,6.70
2022-11-28T01:13:16.293Z,5.53
2022-11-28T01:15:43.345Z,8.30
2022-11-28T01:18:10.497Z,5.43
2022-11-28T01:20:37.468Z,7.10
2022-11-28T01:23:04.798Z,5.60
2022-11-28T01:25:32.102Z,4.97
2022-11-28T01:27:59.166Z,7.07
2022-11-28T01:30:28.016Z,5.77
2022-11-28T01:32:55.102Z,6.07
2022-11-28T01:35:22.395Z,5.50
2022-11-28T01:37:49.388Z,7.83
2022-11-28T01:40:16.824Z,7.20
2022-11-28T01:42:43.764Z,7.47
2022-11-28T01:45:19.802Z,5.23
2022-11-28T01:47:50.906Z,7.03
2022-11-28T01:50:20.543Z,6.03
2022-11-28T01:52:53.309Z,7.23
2022-11-28T01:55:26.443Z,6.93
2022-11-28T01:57:55.873Z,8.33
2022-11-28T02:00:23.943Z,6.10
2022-11-28T02:03:00.513Z,4.90
2022-11-28T02:05:27.493Z,5.20
2022-11-28T02:07:54.809Z,5.70
2022-11-28T02:10:27.257Z,4.93
2022-11-28T02:13:21.139Z,5.53
2022-11-28T02:16:17.284Z,5.00
2022-11-28T02:19:00.564Z,5.60
2022-11-28T02:21:50.682Z,5.57
2022-11-28T02:24:54.827Z,4.40
2022-11-28T02:27:40.817Z,5.33
2022-11-28T02:30:21.175Z,4.13
2022-11-28T02:33:05.850Z,6.33
2022-11-28T02:35:41.864Z,4.73
2022-11-28T02:38:20.251Z,6.43
2022-11-28T02:41:04.362Z,4.60
2022-11-28T02:43:43.253Z,5.37
2022-11-28T02:46:16.655Z,6.83
2022-11-28T02:48:53.500Z,5.27
2022-11-28T02:51:31.352Z,5.27
2022-11-28T02:54:01.896Z,4.83
2022-11-28T02:56:29.247Z,4.93
2022-11-28T02:58:56.284Z,4.60
2022-11-28T03:01:29.511Z,5.33
2022-11-28T03:04:13.193Z,6.20
2022-11-28T03:06:52.562Z,4.77
2022-11-28T03:10:07.724Z,4.97
2022-11-28T03:12:51.743Z,4.90
2022-11-28T03:15:27.231Z,4.90
2022-11-28T03:18:07.804Z,5.20
2022-11-28T03:20:47.510Z,4.87
2022-11-28T03:23:19.587Z,5.07
2022-11-28T03:25:58.583Z,7.40
2022-11-28T03:28:32.526Z,6.67
2022-11-28T03:31:04.713Z,6.77
2022-11-28T03:33:40.650Z,5.60
2022-11-28T03:36:16.615Z,4.80
2022-11-28T03:38:49.641Z,5.97
2022-11-28T03:41:22.217Z,5.40
2022-11-28T03:43:57.683Z,6.47
2022-11-28T03:46:35.056Z,5.40
2022-11-28T03:49:07.013Z,5.17
2022-11-28T03:51:42.909Z,6.13
2022-11-28T03:54:15.357Z,6.03
2022-11-28T03:56:54.633Z,5.53
2022-11-28T03:59:28.670Z,4.77
2022-11-28T04:02:09.157Z,5.10
2022-11-28T04:04:48.401Z,4.93
2022-11-28T04:07:28.819Z,4.80
2022-11-28T04:10:06.558Z,4.63
2022-11-28T04:12:50.546Z,6.43
2022-11-28T04:15:29.430Z,5.23
2022-11-28T04:18:02.241Z,5.43
2022-11-28T04:20:39.951Z,4.93
2022-11-28T04:23:14.811Z,6.17
2022-11-28T04:25:50.862Z,5.97
2022-11-28T04:28:25.560Z,5.80
2022-11-28T04:30:56.410Z,5.57
2022-11-28T04:33:29.234Z,6.10
2022-11-28T04:35:58.651Z,5.33
2022-11-28T04:38:30.131Z,5.20
2022-11-28T04:41:06.560Z,5.40
2022-11-28T04:43:39.286Z,5.17
2022-11-28T04:46:14.802Z,5.87
2022-11-28T04:48:42.595Z,5.33
2022-11-28T04:51:20.747Z,4.70
2022-11-28T04:54:00.881Z,5.43
2022-11-28T04:56:36.966Z,5.17
2022-11-28T04:59:07.400Z,6.50
2022-11-28T05:01:36.900Z,6.07
2022-11-28T05:04:04.227Z,4.77
2022-11-28T05:06:34.064Z,6.50
2022-11-28T05:09:04.024Z,6.10
2022-11-28T05:11:32.256Z,6.73
2022-11-28T05:13:59.254Z,5.90
2022-11-28T05:16:26.556Z,6.40
2022-11-28T05:18:53.739Z,7.13
2022-11-28T05:21:21.057Z,5.10
2022-11-28T05:23:48.803Z,5.87
2022-11-28T05:26:19.895Z,5.60
2022-11-28T05:28:50.739Z,5.30
2022-11-28T05:31:19.772Z,5.60
2022-11-28T05:33:47.540Z,5.30
2022-11-28T05:36:16.413Z,7.73
2022-11-28T05:38:44.570Z,6.17
2022-11-28T05:41:20.468Z,5.80
2022-11-28T05:43:47.834Z,5.43
2022-11-28T05:46:15.265Z,6.20
2022-11-28T05:48:42.413Z,5.83
2022-11-28T05:51:09.482Z,6.53
2022-11-28T05:53:36.529Z,5.87
2022-11-28T05:56:07.538Z,5.63
2022-11-28T05:58:36.482Z,5.63
2022-11-28T06:01:11.528Z,7.50
2022-11-28T06:03:38.553Z,5.87
2022-11-28T06:06:11.446Z,5.90
2022-11-28T06:08:38.369Z,7.70
2022-11-28T06:11:05.983Z,6.33
2022-11-28T06:13:33.078Z,5.13
2022-11-28T06:16:01.631Z,5.30
2022-11-28T06:18:28.803Z,7.30
2022-11-28T06:20:55.844Z,8.20
2022-11-28T06:23:23.009Z,5.73
2022-11-28T06:25:50.018Z,6.60
2022-11-28T06:28:16.988Z,5.70
2022-11-28T06:30:44.530Z,6.93
2022-11-28T06:33:13.166Z,5.73
2022-11-28T06:35:40.578Z,5.93
2022-11-28T06:38:11.500Z,6.83
2022-11-28T06:40:41.515Z,7.00
2022-11-28T06:43:08.495Z,6.30
2022-11-28T06:45:35.935Z,7.13
2022-11-28T06:48:03.147Z,7.27
2022-11-28T06:50:33.782Z,6.77
2022-11-28T06:53:00.773Z,6.13
2022-11-28T06:55:29.885Z,5.83
2022-11-28T06:57:56.867Z,7.03
2022-11-28T07:00:24.304Z,7.73
2022-11-28T07:02:51.707Z,7.80
2022-11-28T07:05:19.337Z,8.27
2022-11-28T07:07:54.317Z,7.73
2022-11-28T07:10:22.547Z,7.03
2022-11-28T07:12:54.520Z,7.47
2022-11-28T07:15:21.876Z,6.13
2022-11-28T07:17:49.239Z,6.67
2022-11-28T07:20:16.873Z,7.00
2022-11-28T07:22:44.391Z,6.93
2022-11-28T07:25:14.710Z,6.87
2022-11-28T07:27:42.035Z,7.30
2022-11-28T07:30:10.369Z,6.70
2022-11-28T07:32:40.271Z,11.17
2022-11-28T07:35:08.895Z,6.73
2022-11-28T07:37:36.576Z,8.27
2022-11-28T07:40:05.730Z,6.93
2022-11-28T07:42:34.058Z,8.13
2022-11-28T07:45:01.060Z,6.53
2022-11-28T07:47:28.106Z,7.70
2022-11-28T07:49:55.519Z,6.10
2022-11-28T07:52:22.607Z,8.00
2022-11-28T07:54:50.297Z,6.77
2022-11-28T07:57:17.566Z,8.63
2022-11-28T07:59:45.989Z,6.70
2022-11-28T08:02:13.538Z,7.67
2022-11-28T08:07:27.495Z,7.90
2022-11-28T08:09:54.496Z,10.07
2022-11-28T08:12:21.446Z,7.23
2022-11-28T08:14:49.880Z,6.63
2022-11-28T08:17:16.818Z,6.70
2022-11-28T08:19:43.772Z,7.90
2022-11-28T08:22:10.738Z,6.37
2022-11-28T08:24:37.859Z,7.40
2022-11-28T08:27:04.844Z,7.87
2022-11-28T08:29:31.861Z,8.37
2022-11-28T08:32:00.376Z,8.07
2022-11-28T08:34:27.346Z,7.13
2022-11-28T08:36:54.296Z,7.80
2022-11-28T08:39:25.326Z,7.53
2022-11-28T08:41:52.827Z,7.07
2022-11-28T08:44:19.874Z,10.10
2022-11-28T08:46:46.930Z,9.30
2022-11-28T08:49:15.955Z,7.40
2022-11-28T08:51:42.939Z,9.13
2022-11-28T08:54:10.124Z,7.63
2022-11-28T08:56:37.069Z,8.50
2022-11-28T08:59:04.436Z,6.53
2022-11-28T09:01:31.997Z,7.50
2022-11-28T09:03:59.161Z,10.97
2022-11-28T09:06:27.581Z,7.67
2022-11-28T09:08:54.893Z,7.27
2022-11-28T09:11:23.153Z,7.80
2022-11-28T09:13:51.025Z,7.10
2022-11-28T09:16:19.500Z,7.57
2022-11-28T09:18:46.663Z,6.60
2022-11-28T09:21:15.314Z,7.80
2022-11-28T09:23:45.611Z,7.63
2022-11-28T09:26:38.686Z,8.03
2022-11-28T09:29:06.747Z,6.47
2022-11-28T09:31:33.962Z,8.93
2022-11-28T09:34:03.918Z,10.77
2022-11-28T09:36:33.110Z,10.40
2022-11-28T09:39:02.299Z,12.40
2022-11-28T09:41:54.101Z,8.53
2022-11-28T09:44:26.904Z,11.10
2022-11-28T09:47:04.790Z,7.43
2022-11-28T09:49:41.846Z,9.63
2022-11-28T09:52:26.462Z,8.77
2022-11-28T09:55:05.688Z,9.37
2022-11-28T09:57:39.083Z,8.03
2022-11-28T10:00:16.937Z,7.20
2022-11-28T10:02:56.997Z,8.20
2022-11-28T10:05:35.855Z,7.57
2022-11-28T10:08:21.667Z,10.23
2022-11-28T10:11:01.028Z,7.50
2022-11-28T10:14:06.634Z,7.00
2022-11-28T10:16:46.402Z,7.17
2022-11-28T10:19:52.852Z,7.43
2022-11-28T10:22:16.236Z,7.17
2022-11-28T10:24:50.095Z,7.77
2022-11-28T10:27:32.637Z,6.70
2022-11-28T10:30:04.902Z,7.93
2022-11-28T10:32:38.269Z,8.17
2022-11-28T10:35:13.241Z,6.90
2022-11-28T10:37:40.287Z,10.47
2022-11-28T10:40:24.878Z,7.33
2022-11-28T10:43:01.330Z,7.43
2022-11-28T10:45:43.839Z,8.20
2022-11-28T10:48:40.468Z,8.07
2022-11-28T10:51:28.840Z,7.53
2022-11-28T10:54:15.813Z,9.03
2022-11-28T10:56:56.963Z,8.23
2022-11-28T10:59:45.073Z,9.07
2022-11-28T11:02:26.357Z,9.60
2022-11-28T11:04:54.682Z,8.37
2022-11-28T11:07:29.889Z,7.37
2022-11-28T11:10:12.284Z,8.03
2022-11-28T11:12:41.507Z,8.97
2022-11-28T11:15:29.901Z,7.90
2022-11-28T11:17:57.500Z,8.83
2022-11-28T11:20:36.033Z,9.00
2022-11-28T11:23:15.784Z,8.03
2022-11-28T11:25:53.419Z,8.10
2022-11-28T11:28:39.200Z,12.00
2022-11-28T11:31:20.428Z,8.00
2022-11-28T11:33:51.540Z,9.70
2022-11-28T11:36:29.059Z,9.07
2022-11-28T11:39:22.037Z,10.10
2022-11-28T11:41:51.728Z,8.93
2022-11-28T11:44:34.105Z,8.53
2022-11-28T11:47:05.750Z,9.30
2022-11-28T11:49:36.605Z,9.37
2022-11-28T11:52:14.496Z,9.37
2022-11-28T11:54:58.701Z,10.13
2022-11-28T11:57:33.870Z,8.50
2022-11-28T12:00:07.128Z,8.60
2022-11-28T12:02:44.197Z,9.90
2022-11-28T12:05:17.061Z,11.93
2022-11-28T12:07:56.622Z,9.63
2022-11-28T12:10:29.640Z,10.00
2022-11-28T12:12:57.386Z,8.80
2022-11-28T12:15:47.829Z,8.13
2022-11-28T12:18:35.131Z,10.37
2022-11-28T12:21:13.887Z,10.83
2022-11-28T12:24:01.554Z,8.83
2022-11-28T12:26:41.035Z,10.10
2022-11-28T12:29:39.157Z,11.37
2022-11-28T12:32:29.252Z,9.77
2022-11-28T12:35:21.739Z,8.27
2022-11-28T12:38:10.715Z,7.97
2022-11-28T12:40:56.497Z,8.80
2022-11-28T12:43:44.272Z,8.47
2022-11-28T12:46:27.034Z,9.27
2022-11-28T12:49:17.505Z,10.43
2022-11-28T12:52:05.310Z,10.27
2022-11-28T12:55:17.395Z,9.17
2022-11-28T12:57:53.403Z,8.00
2022-11-28T13:00:24.556Z,9.17
2022-11-28T13:03:08.856Z,9.33
2022-11-28T13:05:59.144Z,11.23
2022-11-28T13:08:52.995Z,12.40
2022-11-28T13:11:44.926Z,9.90
2022-11-28T13:14:29.479Z,8.70
2022-11-28T13:17:07.456Z,9.43
2022-11-28T13:19:50.297Z,12.37
2022-11-28T13:22:24.981Z,9.93
2022-11-28T13:25:06.922Z,10.23
2022-11-28T13:27:44.693Z,8.43
2022-11-28T13:30:22.386Z,11.43
2022-11-28T13:33:01.345Z,10.20
2022-11-28T13:35:29.840Z,10.07
2022-11-28T13:41:03.869Z,10.37
2022-11-28T13:43:46.419Z,8.90
2022-11-28T13:46:14.902Z,9.77
2022-11-28T13:49:20.525Z,10.13
2022-11-28T13:51:48.886Z,11.40
2022-11-28T13:54:44.677Z,11.47
2022-11-28T13:57:31.019Z,13.97
2022-11-28T14:00:05.009Z,12.03
2022-11-28T14:02:44.316Z,9.47
2022-11-28T14:05:31.063Z,9.07
2022-11-28T14:07:58.610Z,9.73
2022-11-28T14:10:56.567Z,9.00
2022-11-28T14:13:58.251Z,11.07
2022-11-28T14:16:50.098Z,10.57
2022-11-28T14:19:38.323Z,8.40
2022-11-28T14:22:28.748Z,8.40
2022-11-28T14:25:04.694Z,9.43
2022-11-28T14:27:36.742Z,9.50
2022-11-28T14:30:07.605Z,10.13
2022-11-28T14:32:40.216Z,9.03
2022-11-28T14:35:36.621Z,9.10
2022-11-28T14:38:24.974Z,9.40
2022-11-28T14:41:04.069Z,12.33
2022-11-28T14:43:32.206Z,10.13
2022-11-28T14:46:30.512Z,10.57
2022-11-28T14:49:30.846Z,10.00
2022-11-28T14:52:37.595Z,11.23
2022-11-28T14:55:17.755Z,10.23
2022-11-28T14:57:56.531Z,12.57
2022-11-28T15:00:27.789Z,9.20
2022-11-28T15:03:19.324Z,10.57
2022-11-28T15:05:50.481Z,11.07
2022-11-28T15:08:36.954Z,10.23
2022-11-28T15:11:37.786Z,12.50
2022-11-28T15:14:19.557Z,11.03
2022-11-28T15:16:50.837Z,11.63
2022-11-28T15:19:27.465Z,11.93
2022-11-28T15:21:55.786Z,11.27
2022-11-28T15:24:30.481Z,11.07
2022-11-28T15:27:22.433Z,11.27
2022-11-28T15:29:55.655Z,9.27
2022-11-28T15:32:23.622Z,12.27
2022-11-28T15:35:00.535Z,11.07
2022-11-28T15:37:31.395Z,9.67
2022-11-28T15:40:01.055Z,11.50
2022-11-28T15:42:32.426Z,9.93
2022-11-28T15:45:08.298Z,11.63
2022-11-28T15:47:35.503Z,9.60
2022-11-28T15:50:16.959Z,9.47
2022-11-28T15:52:56.960Z,11.73
2022-11-28T15:55:29.519Z,9.63
2022-11-28T15:58:12.060Z,9.80
2022-11-28T16:00:45.048Z,9.53
2022-11-28T16:03:17.674Z,10.93
2022-11-28T16:05:48.435Z,10.33
2022-11-28T16:08:30.616Z,11.30
2022-11-28T16:10:59.363Z,12.20
2022-11-28T16:13:29.269Z,11.33
2022-11-28T16:15:58.353Z,11.27
2022-11-28T16:18:27.741Z,11.53
2022-11-28T16:21:00.142Z,10.27
2022-11-28T16:23:32.706Z,10.77
2022-11-28T16:26:02.464Z,12.17
2022-11-28T16:28:33.479Z,10.73
2022-11-28T16:31:00.647Z,12.17
2022-11-28T16:33:38.513Z,12.87
2022-11-28T16:36:17.914Z,10.23
2022-11-28T16:38:48.033Z,13.43
2022-11-28T16:41:17.930Z,11.60
2022-11-28T16:43:52.790Z,11.13
2022-11-28T16:46:23.480Z,9.93
2022-11-28T16:48:56.234Z,10.87
2022-11-28T16:51:36.766Z,11.07
2022-11-28T16:54:31.673Z,10.33
2022-11-28T16:57:11.479Z,10.33
2022-11-28T16:59:38.891Z,11.70
2022-11-28T17:02:15.648Z,13.10
2022-11-28T17:04:43.755Z,11.03
2022-11-28T17:07:15.259Z,12.33
2022-11-28T17:09:43.083Z,11.23
2022-11-28T17:12:20.755Z,12.37
2022-11-28T17:14:47.773Z,10.73
2022-11-28T17:17:18.537Z,12.80
2022-11-28T17:19:46.760Z,13.73
2022-11-28T17:22:19.796Z,11.07
2022-11-28T17:24:48.610Z,12.47
2022-11-28T17:27:16.421Z,11.43
2022-11-28T17:29:44.004Z,13.40
2022-11-28T17:32:13.314Z,19.03
2022-11-28T17:34:42.723Z,11.40
2022-11-28T17:37:10.648Z,11.97
2022-11-28T17:39:39.072Z,11.07
2022-11-28T17:42:06.527Z,12.10
2022-11-28T17:44:37.451Z,13.23
2022-11-28T17:47:05.893Z,12.50
2022-11-28T17:49:33.134Z,12.47
2022-11-28T17:52:00.125Z,14.20
2022-11-28T17:54:28.291Z,14.67
2022-11-28T17:56:57.706Z,11.67
2022-11-28T17:59:26.874Z,12.67
2022-11-28T18:01:54.482Z,14.47
2022-11-28T18:04:21.778Z,12.80
2022-11-28T18:06:48.843Z,11.27
2022-11-28T18:09:16.131Z,14.20
2022-11-28T18:11:44.841Z,12.77
2022-11-28T18:14:13.898Z,11.23
2022-11-28T18:16:43.596Z,11.13
2022-11-28T18:19:11.779Z,14.90
2022-11-28T18:21:39.069Z,11.67
2022-11-28T18:24:07.188Z,12.57
2022-11-28T18:26:35.862Z,14.20
2022-11-28T18:29:03.331Z,13.93
2022-11-28T18:31:31.666Z,15.77
2022-11-28T18:34:02.502Z,11.63
2022-11-28T18:36:32.453Z,15.40
2022-11-28T18:39:03.204Z,13.23
2022-11-28T18:41:30.745Z,13.60
2022-11-28T18:43:59.576Z,12.43
2022-11-28T18:46:28.229Z,15.63
2022-11-28T18:49:00.671Z,14.47
2022-11-28T18:51:30.881Z,12.57
2022-11-28T18:54:02.558Z,15.03
2022-11-28T18:56:31.229Z,14.37
2022-11-28T18:58:58.773Z,15.33
2022-11-28T19:01:30.265Z,17.17
2022-11-28T19:04:01.467Z,11.83
2022-11-28T19:06:29.951Z,14.83
2022-11-28T19:09:00.174Z,15.00
2022-11-28T19:11:31.046Z,14.23
2022-11-28T19:13:59.567Z,13.80
2022-11-28T19:16:30.642Z,14.87
2022-11-28T19:19:01.145Z,12.90
2022-11-28T19:21:32.702Z,14.93
2022-11-28T19:24:01.184Z,15.23
2022-11-28T19:26:31.142Z,14.53
2022-11-28T19:28:59.681Z,12.83
2022-11-28T19:31:29.735Z,13.27
2022-11-28T19:34:02.099Z,13.10
2022-11-28T19:36:31.054Z,12.93
2022-11-28T19:38:58.307Z,15.83
2022-11-28T19:41:25.839Z,15.00
2022-11-28T19:43:52.834Z,14.93
2022-11-28T19:46:20.174Z,14.83
2022-11-28T19:48:47.647Z,17.77
2022-11-28T19:51:15.978Z,14.87
2022-11-28T19:53:47.977Z,15.70
2022-11-28T19:56:18.009Z,16.03
2022-11-28T19:58:48.526Z,13.50
2022-11-28T20:01:18.454Z,13.70
2022-11-28T20:03:47.981Z,14.80
2022-11-28T20:06:19.232Z,15.70
2022-11-28T20:08:47.880Z,14.50
2022-11-28T20:11:18.218Z,12.87
2022-11-28T20:13:46.109Z,12.47
2022-11-28T20:16:17.136Z,14.47
2022-11-28T20:18:45.467Z,11.87
2022-11-28T20:21:17.221Z,13.90
2022-11-28T20:23:47.010Z,12.30
2022-11-28T20:26:16.590Z,12.40
2022-11-28T20:28:45.500Z,11.43
2022-11-28T20:31:20.228Z,13.33
2022-11-28T20:33:48.261Z,13.57
2022-11-28T20:36:19.915Z,14.20
2022-11-28T20:38:48.121Z,13.33
2022-11-28T20:41:18.585Z,15.90
2022-11-28T20:43:46.490Z,13.20
2022-11-28T20:46:16.598Z,14.03
2022-11-28T20:48:44.508Z,16.60
2022-11-28T20:51:14.358Z,12.93
2022-11-28T20:53:42.888Z,15.20
2022-11-28T20:56:14.341Z,11.83
2022-11-28T20:58:42.287Z,13.23
2022-11-28T21:01:14.712Z,12.17
2022-11-28T21:03:41.840Z,17.20
2022-11-28T21:06:09.288Z,14.53
2022-11-28T21:08:36.643Z,14.40
2022-11-28T21:11:07.320Z,13.97
2022-11-28T21:13:35.001Z,15.47
2022-11-28T21:16:07.163Z,14.47
2022-11-28T21:18:35.788Z,13.73
2022-11-28T21:21:09.225Z,15.27
2022-11-28T21:23:36.926Z,13.13
2022-11-28T21:26:07.699Z,13.40
2022-11-28T21:28:36.445Z,12.73
2022-11-28T21:31:06.631Z,14.63
2022-11-28T21:33:33.623Z,15.73
2022-11-28T21:36:01.499Z,15.90
2022-11-28T21:38:28.558Z,15.20
2022-11-28T21:40:55.509Z,13.50
2022-11-28T21:43:23.941Z,12.07
2022-11-28T21:45:51.377Z,13.33
2022-11-28T21:48:18.392Z,14.30
2022-11-28T21:50:46.464Z,17.10
2022-11-28T21:53:16.196Z,13.97
2022-11-28T21:55:44.263Z,15.00
2022-11-28T21:58:11.583Z,12.80
2022-11-28T22:00:53.308Z,16.27
2022-11-28T22:03:22.150Z,16.30
2022-11-28T22:05:49.143Z,13.83
2022-11-28T22:08:16.091Z,13.53
2022-11-28T22:10:43.038Z,12.90
2022-11-28T22:13:09.990Z,13.87
2022-11-28T22:15:42.742Z,14.37
2022-11-28T22:18:10.125Z,14.97
2022-11-28T22:20:43.145Z,16.73
2022-11-28T22:23:11.345Z,14.53
2022-11-28T22:25:38.458Z,14.23
2022-11-28T22:28:05.411Z,15.57
2022-11-28T22:30:32.498Z,15.73
2022-11-28T22:33:00.778Z,17.67
2022-11-28T22:35:27.750Z,12.53
2022-11-28T22:37:55.078Z,13.37
2022-11-28T22:40:22.071Z,14.03
2022-11-28T22:42:54.152Z,14.07
2022-11-28T22:45:21.201Z,13.83
2022-11-28T22:47:48.164Z,14.97
2022-11-28T22:50:16.812Z,13.13
2022-11-28T22:52:44.118Z,14.90
2022-11-28T22:55:11.111Z,12.67
2022-11-28T22:57:38.151Z,12.33
2022-11-28T23:00:08.799Z,14.07
2022-11-28T23:02:36.336Z,15.00
2022-11-28T23:05:04.497Z,13.63
2022-11-28T23:07:32.951Z,11.97
2022-11-28T23:09:59.989Z,15.83
2022-11-28T23:12:26.922Z,14.23
2022-11-28T23:14:53.839Z,14.70
2022-11-28T23:17:20.879Z,15.13
2022-11-28T23:19:47.865Z,14.53
2022-11-28T23:22:14.819Z,14.73
2022-11-28T23:24:43.475Z,17.67
2022-11-28T23:27:10.715Z,15.57
2022-11-28T23:29:37.722Z,14.70
2022-11-28T23:32:05.196Z,15.70
2022-11-28T23:34:32.157Z,14.17
2022-11-28T23:36:59.106Z,12.77
2022-11-28T23:39:26.154Z,14.57
2022-11-28T23:41:55.393Z,12.17
2022-11-28T23:44:22.340Z,16.93
2022-11-28T23:46:49.376Z,14.00
2022-11-28T23:49:17.186Z,13.93
2022-11-28T23:51:44.224Z,12.10
2022-11-28T23:54:11.850Z,13.47
2022-11-28T23:56:41.228Z,13.30
2022-11-28T23:59:11.867Z,13.13
